Time,TemperatureF,DewpointF,PressureIn,WindDirection,WindDirectionDegrees,WindSpeedMPH,WindSpeedGustMPH,Humidity,HourlyPrecipIn,Conditions,Clouds,dailyrainin,SoftwareType,DateUTC
2013-03-03 00:00:00,29.8,20.2,29.88,SSE,158,3.4,4.0,67,0.00,,---,0.00,VWS V14.01,2013-03-03 06:00:00,
2013-03-03 00:05:00,29.8,20.2,29.88,ESE,112,3.8,3.8,67,0.00,,---,0.00,VWS V14.01,2013-03-03 06:05:00,
2013-03-03 00:10:00,29.8,20.2,29.85,SSE,158,2.5,2.5,67,0.00,,---,0.00,VWS V14.01,2013-03-03 06:10:00,
2013-03-03 00:15:00,29.8,20.2,29.85,ENE,68,2.7,2.7,67,0.00,,---,0.00,VWS V14.01,2013-03-03 06:15:00,
2013-03-03 00:20:00,29.7,20.4,29.85,South,180,3.4,3.4,68,0.00,,---,0.00,VWS V14.01,2013-03-03 06:20:00,
2013-03-03 00:25:00,29.7,20.4,29.85,SSE,158,4.0,4.0,68,0.00,,---,0.00,VWS V14.01,2013-03-03 06:25:00,
2013-03-03 00:30:00,29.7,20.4,29.85,SE,135,2.0,2.0,68,0.00,,---,0.00,VWS V14.01,2013-03-03 06:30:00,
2013-03-03 00:36:00,29.7,20.4,29.85,South,180,3.6,6.3,68,0.00,,---,0.00,VWS V14.01,2013-03-03 06:36:00,
2013-03-03 00:41:00,29.7,20.4,29.85,SE,135,3.4,3.4,68,0.00,,---,0.00,VWS V14.01,2013-03-03 06:41:00,
2013-03-03 00:46:00,29.5,20.2,29.85,ESE,112,3.4,4.3,68,0.00,,---,0.00,VWS V14.01,2013-03-03 06:46:00,
2013-03-03 00:51:00,29.5,20.2,29.85,SSE,158,2.7,2.7,68,0.00,,---,0.00,VWS V14.01,2013-03-03 06:51:00,
2013-03-03 00:56:00,29.5,20.2,29.85,ESE,112,3.4,3.4,68,0.00,,---,0.00,VWS V14.01,2013-03-03 06:56:00,
2013-03-03 01:01:00,29.3,20.4,29.85,SSE,158,2.9,2.9,69,0.00,,---,0.00,VWS V14.01,2013-03-03 07:01:00,
2013-03-03 01:06:00,29.3,20.4,29.85,SSE,158,4.7,4.7,69,0.00,,---,0.00,VWS V14.01,2013-03-03 07:06:00,
2013-03-03 01:11:00,29.3,20.4,29.85,SSE,158,2.0,2.0,69,0.00,,---,0.00,VWS V14.01,2013-03-03 07:11:00,
2013-03-03 01:16:00,29.1,20.2,29.85,SE,135,5.4,5.4,69,0.00,,---,0.00,VWS V14.01,2013-03-03 07:16:00,
2013-03-03 01:21:00,29.1,20.2,29.85,SSE,158,3.6,3.6,69,0.00,,---,0.00,VWS V14.01,2013-03-03 07:21:00,
2013-03-03 01:26:00,29.1,20.6,29.85,SE,135,3.1,3.1,70,0.00,,---,0.00,VWS V14.01,2013-03-03 07:26:00,
2013-03-03 01:31:00,28.9,20.4,29.85,ESE,112,3.8,3.8,70,0.00,,---,0.00,VWS V14.01,2013-03-03 07:31:00,
2013-03-03 01:36:00,28.9,20.4,29.85,South,180,2.9,2.9,70,0.00,,---,0.00,VWS V14.01,2013-03-03 07:36:00,
2013-03-03 01:41:00,28.8,20.2,29.85,SE,135,4.0,4.0,70,0.00,,---,0.00,VWS V14.01,2013-03-03 07:41:00,
2013-03-03 01:46:00,28.8,20.2,29.85,ESE,112,3.4,3.4,70,0.00,,---,0.00,VWS V14.01,2013-03-03 07:46:00,
2013-03-03 01:51:00,28.6,20.0,29.85,SE,135,2.7,3.8,70,0.00,,---,0.00,VWS V14.01,2013-03-03 07:51:00,
2013-03-03 01:56:00,28.6,20.4,29.85,SSE,158,6.3,6.3,71,0.00,,---,0.00,VWS V14.01,2013-03-03 07:56:00,
2013-03-03 02:01:00,28.6,20.4,29.85,SE,135,3.6,3.6,71,0.00,,---,0.00,VWS V14.01,2013-03-03 08:01:00,
2013-03-03 02:06:00,28.6,20.4,29.85,SE,135,5.4,5.4,71,0.00,,---,0.00,VWS V14.01,2013-03-03 08:06:00,
2013-03-03 02:11:00,28.6,20.4,29.85,ESE,112,2.9,3.8,71,0.00,,---,0.00,VWS V14.01,2013-03-03 08:11:00,
2013-03-03 02:16:00,28.4,20.2,29.85,SSE,158,4.9,4.9,71,0.00,,---,0.00,VWS V14.01,2013-03-03 08:16:00,
2013-03-03 02:21:00,28.4,20.2,29.85,ESE,112,5.8,5.8,71,0.00,,---,0.00,VWS V14.01,2013-03-03 08:21:00,
2013-03-03 02:26:00,28.4,20.2,29.82,SE,135,4.3,4.3,71,0.00,,---,0.00,VWS V14.01,2013-03-03 08:26:00,
2013-03-03 02:31:00,28.4,20.5,29.82,SE,135,6.0,6.0,72,0.00,,---,0.00,VWS V14.01,2013-03-03 08:31:00,
2013-03-03 02:36:00,28.2,20.4,29.82,South,180,4.3,4.3,72,0.00,,---,0.00,VWS V14.01,2013-03-03 08:36:00,
2013-03-03 02:41:00,28.2,20.4,29.82,South,180,2.0,2.0,72,0.00,,---,0.00,VWS V14.01,2013-03-03 08:41:00,
2013-03-03 02:46:00,28.2,20.4,29.82,SSE,158,2.5,4.5,72,0.00,,---,0.00,VWS V14.01,2013-03-03 08:46:00,
2013-03-03 02:51:00,28.2,20.4,29.82,SSE,158,3.8,3.8,72,0.00,,---,0.00,VWS V14.01,2013-03-03 08:51:00,
2013-03-03 02:56:00,28.0,20.2,29.82,SE,135,3.8,3.8,72,0.00,,---,0.00,VWS V14.01,2013-03-03 08:56:00,
2013-03-03 03:01:00,28.0,20.2,29.82,SE,135,1.6,2.9,72,0.00,,---,0.00,VWS V14.01,2013-03-03 09:01:00,
2013-03-03 03:06:00,28.0,20.2,29.82,SE,135,3.1,3.1,72,0.00,,---,0.00,VWS V14.01,2013-03-03 09:06:00,
2013-03-03 03:11:00,28.0,20.2,29.79,SSE,158,4.0,4.0,72,0.00,,---,0.00,VWS V14.01,2013-03-03 09:11:00,
2013-03-03 03:16:00,28.0,20.2,29.79,ESE,112,3.1,3.1,72,0.00,,---,0.00,VWS V14.01,2013-03-03 09:16:00,
2013-03-03 03:21:00,27.9,20.0,29.79,SE,135,2.5,2.5,72,0.00,,---,0.00,VWS V14.01,2013-03-03 09:21:00,
2013-03-03 03:26:00,27.9,20.0,29.79,SE,135,4.0,4.0,72,0.00,,---,0.00,VWS V14.01,2013-03-03 09:26:00,
2013-03-03 03:31:00,27.9,20.0,29.79,SSE,158,3.8,6.3,72,0.00,,---,0.00,VWS V14.01,2013-03-03 09:31:00,
2013-03-03 03:36:00,27.9,20.0,29.79,South,180,4.9,4.9,72,0.00,,---,0.00,VWS V14.01,2013-03-03 09:36:00,
2013-03-03 03:41:00,27.9,20.0,29.79,SSE,158,3.4,3.4,72,0.00,,---,0.00,VWS V14.01,2013-03-03 09:41:00,
2013-03-03 03:46:00,27.9,20.0,29.79,SSE,158,2.9,4.9,72,0.00,,---,0.00,VWS V14.01,2013-03-03 09:46:00,
2013-03-03 03:51:00,27.9,20.0,29.79,SSE,158,5.8,5.8,72,0.00,,---,0.00,VWS V14.01,2013-03-03 09:51:00,
2013-03-03 03:56:00,27.9,20.0,29.76,ESE,112,2.7,2.9,72,0.00,,---,0.00,VWS V14.01,2013-03-03 09:56:00,
2013-03-03 04:01:00,27.9,20.0,29.76,SSE,158,5.4,5.4,72,0.00,,---,0.00,VWS V14.01,2013-03-03 10:01:00,
2013-03-03 04:06:00,27.9,20.0,29.76,SSE,158,4.3,4.3,72,0.00,,---,0.00,VWS V14.01,2013-03-03 10:06:00,
2013-03-03 04:11:00,27.9,20.0,29.76,SSE,158,3.4,3.4,72,0.00,,---,0.00,VWS V14.01,2013-03-03 10:11:00,
2013-03-03 04:16:00,27.9,20.0,29.76,SE,135,6.3,6.3,72,0.00,,---,0.00,VWS V14.01,2013-03-03 10:16:00,
2013-03-03 04:22:00,27.9,20.3,29.76,South,180,4.0,4.0,73,0.00,,---,0.00,VWS V14.01,2013-03-03 10:22:00,
2013-03-03 04:27:00,27.9,20.3,29.76,SSE,158,3.4,3.4,73,0.00,,---,0.00,VWS V14.01,2013-03-03 10:27:00,
2013-03-03 04:32:00,27.9,20.3,29.76,SE,135,3.1,4.9,73,0.00,,---,0.00,VWS V14.01,2013-03-03 10:32:00,
2013-03-03 04:37:00,27.7,20.2,29.76,ESE,112,5.6,5.6,73,0.00,,---,0.00,VWS V14.01,2013-03-03 10:37:00,
2013-03-03 04:42:00,27.7,20.2,29.76,ESE,112,2.9,2.9,73,0.00,,---,0.00,VWS V14.01,2013-03-03 10:42:00,
2013-03-03 04:47:00,27.7,20.2,29.76,SE,135,8.1,8.1,73,0.00,,---,0.00,VWS V14.01,2013-03-03 10:47:00,
2013-03-03 04:52:00,27.7,20.2,29.76,ESE,112,2.5,2.5,73,0.00,,---,0.00,VWS V14.01,2013-03-03 10:52:00,
2013-03-03 04:57:00,27.7,20.2,29.76,SSE,158,2.7,3.4,73,0.00,,---,0.00,VWS V14.01,2013-03-03 10:57:00,
2013-03-03 05:02:00,27.7,20.2,29.76,SE,135,3.8,3.8,73,0.00,,---,0.00,VWS V14.01,2013-03-03 11:02:00,
2013-03-03 05:07:00,27.7,20.2,29.76,ESE,112,3.6,3.6,73,0.00,,---,0.00,VWS V14.01,2013-03-03 11:07:00,
2013-03-03 05:12:00,27.5,20.0,29.76,ESE,112,2.0,2.7,73,0.00,,---,0.00,VWS V14.01,2013-03-03 11:12:00,
2013-03-03 05:17:00,27.5,20.0,29.76,SE,135,2.7,2.7,73,0.00,,---,0.00,VWS V14.01,2013-03-03 11:17:00,
2013-03-03 05:22:00,27.5,20.0,29.76,SSE,158,3.1,3.1,73,0.00,,---,0.00,VWS V14.01,2013-03-03 11:22:00,
2013-03-03 05:27:00,27.5,20.0,29.76,SSW,202,2.0,4.5,73,0.00,,---,0.00,VWS V14.01,2013-03-03 11:27:00,
2013-03-03 05:32:00,27.5,20.0,29.76,ESE,112,3.1,3.1,73,0.00,,---,0.00,VWS V14.01,2013-03-03 11:32:00,
2013-03-03 05:37:00,27.5,20.0,29.76,ESE,112,3.6,3.6,73,0.00,,---,0.00,VWS V14.01,2013-03-03 11:37:00,
2013-03-03 05:42:00,27.3,19.8,29.76,ESE,112,2.7,2.7,73,0.00,,---,0.00,VWS V14.01,2013-03-03 11:42:00,
2013-03-03 05:47:00,27.3,20.1,29.76,ENE,68,3.4,5.6,74,0.00,,---,0.00,VWS V14.01,2013-03-03 11:47:00,
2013-03-03 05:52:00,27.3,19.8,29.76,SSE,158,8.5,8.5,73,0.00,,---,0.00,VWS V14.01,2013-03-03 11:52:00,
2013-03-03 05:57:00,27.3,19.8,29.76,SSE,158,8.1,8.1,73,0.00,,---,0.00,VWS V14.01,2013-03-03 11:57:00,
2013-03-03 06:02:00,27.3,19.8,29.76,ESE,112,4.0,4.0,73,0.00,,---,0.00,VWS V14.01,2013-03-03 12:02:00,
2013-03-03 06:07:00,27.3,19.8,29.76,SSE,158,7.6,7.6,73,0.00,,---,0.00,VWS V14.01,2013-03-03 12:07:00,
2013-03-03 06:12:00,27.3,20.1,29.76,ESE,112,4.0,4.0,74,0.00,,---,0.00,VWS V14.01,2013-03-03 12:12:00,
2013-03-03 06:17:00,27.1,20.0,29.76,ESE,112,5.8,6.3,74,0.00,,---,0.00,VWS V14.01,2013-03-03 12:17:00,
2013-03-03 06:22:00,27.1,20.0,29.76,SE,135,4.0,4.0,74,0.00,,---,0.00,VWS V14.01,2013-03-03 12:22:00,
2013-03-03 06:27:00,27.1,20.0,29.74,ESE,112,4.9,5.4,74,0.00,,---,0.00,VWS V14.01,2013-03-03 12:27:00,
2013-03-03 06:32:00,27.1,20.0,29.74,ESE,112,2.7,3.1,74,0.00,,---,0.00,VWS V14.01,2013-03-03 12:32:00,
2013-03-03 06:37:00,27.0,19.8,29.74,East,90,3.8,3.8,74,0.00,,---,0.00,VWS V14.01,2013-03-03 12:37:00,
2013-03-03 06:42:00,27.0,19.8,29.74,ESE,112,2.7,2.7,74,0.00,,---,0.00,VWS V14.01,2013-03-03 12:42:00,
2013-03-03 06:47:00,26.8,19.6,29.74,ESE,112,3.1,5.4,74,0.00,,---,0.00,VWS V14.01,2013-03-03 12:47:00,
2013-03-03 06:52:00,26.8,19.6,29.74,ESE,112,3.1,3.8,74,0.00,,---,0.00,VWS V14.01,2013-03-03 12:52:00,
2013-03-03 06:57:00,26.8,19.6,29.76,ESE,112,3.8,3.8,74,0.00,,---,0.00,VWS V14.01,2013-03-03 12:57:00,
2013-03-03 07:02:00,26.8,19.6,29.76,ESE,112,3.1,4.7,74,0.00,,---,0.00,VWS V14.01,2013-03-03 13:02:00,
2013-03-03 07:07:00,26.8,19.6,29.76,ESE,112,2.7,2.7,74,0.00,,---,0.00,VWS V14.01,2013-03-03 13:07:00,
2013-03-03 07:12:00,26.8,19.6,29.76,ESE,112,4.0,4.0,74,0.00,,---,0.00,VWS V14.01,2013-03-03 13:12:00,
2013-03-03 07:17:00,26.8,19.6,29.76,East,90,4.3,4.3,74,0.00,,---,0.00,VWS V14.01,2013-03-03 13:17:00,
2013-03-03 07:22:00,26.8,19.6,29.76,East,90,3.6,6.5,74,0.00,,---,0.00,VWS V14.01,2013-03-03 13:22:00,
2013-03-03 07:27:00,26.8,19.6,29.76,SE,135,4.9,4.9,74,0.00,,---,0.00,VWS V14.01,2013-03-03 13:27:00,
2013-03-03 07:32:00,27.0,19.8,29.76,SE,135,3.4,3.8,74,0.00,,---,0.00,VWS V14.01,2013-03-03 13:32:00,
2013-03-03 07:37:00,27.1,20.0,29.76,SE,135,3.8,3.8,74,0.00,,---,0.00,VWS V14.01,2013-03-03 13:37:00,
2013-03-03 07:42:00,27.3,20.1,29.74,ESE,112,5.8,5.8,74,0.00,,---,0.00,VWS V14.01,2013-03-03 13:42:00,
2013-03-03 07:47:00,27.3,20.1,29.74,ESE,112,3.8,6.0,74,0.00,,---,0.00,VWS V14.01,2013-03-03 13:47:00,
2013-03-03 07:52:00,27.9,20.3,29.74,SE,135,3.1,6.0,73,0.00,,---,0.00,VWS V14.01,2013-03-03 13:52:00,
2013-03-03 07:57:00,27.9,20.3,29.74,ESE,112,5.6,5.6,73,0.00,,---,0.00,VWS V14.01,2013-03-03 13:57:00,
2013-03-03 08:02:00,28.0,20.5,29.74,SE,135,4.0,4.0,73,0.00,,---,0.00,VWS V14.01,2013-03-03 14:02:00,
2013-03-03 08:08:00,28.0,20.5,29.74,SE,135,2.0,2.0,73,0.00,,---,0.00,VWS V14.01,2013-03-03 14:08:00,
2013-03-03 08:13:00,28.2,20.7,29.74,ESE,112,5.8,6.0,73,0.00,,---,0.00,VWS V14.01,2013-03-03 14:13:00,
2013-03-03 08:18:00,28.6,20.7,29.74,SSE,158,3.8,3.8,72,0.00,,---,0.00,VWS V14.01,2013-03-03 14:18:00,
2013-03-03 08:23:00,28.6,20.7,29.74,SE,135,5.8,5.8,72,0.00,,---,0.00,VWS V14.01,2013-03-03 14:23:00,
2013-03-03 08:28:00,28.6,20.7,29.74,East,90,4.3,4.3,72,0.00,,---,0.00,VWS V14.01,2013-03-03 14:28:00,
2013-03-03 08:33:00,28.9,21.1,29.74,SSE,158,5.6,5.6,72,0.00,,---,0.00,VWS V14.01,2013-03-03 14:33:00,
2013-03-03 08:38:00,29.7,21.8,29.74,South,180,3.4,3.4,72,0.00,,---,0.00,VWS V14.01,2013-03-03 14:38:00,
2013-03-03 08:43:00,30.2,21.9,29.74,ESE,112,4.9,4.9,71,0.00,,---,0.00,VWS V14.01,2013-03-03 14:43:00,
2013-03-03 08:48:00,30.4,22.1,29.74,SE,135,3.6,3.6,71,0.00,,---,0.00,VWS V14.01,2013-03-03 14:48:00,
2013-03-03 08:53:00,30.9,22.3,29.74,East,90,3.8,4.0,70,0.00,,---,0.00,VWS V14.01,2013-03-03 14:53:00,
2013-03-03 08:58:00,31.1,22.5,29.74,SE,135,11.0,11.0,70,0.00,,---,0.00,VWS V14.01,2013-03-03 14:58:00,
2013-03-03 09:03:00,32.2,23.2,29.74,ESE,112,3.6,3.6,69,0.00,,---,0.00,VWS V14.01,2013-03-03 15:03:00,
2013-03-03 09:08:00,33.1,24.0,29.74,East,90,7.2,7.8,69,0.00,,---,0.00,VWS V14.01,2013-03-03 15:08:00,
2013-03-03 09:13:00,33.1,23.7,29.74,ESE,112,7.8,7.8,68,0.00,,---,0.00,VWS V14.01,2013-03-03 15:13:00,
2013-03-03 09:18:00,33.3,23.9,29.74,ESE,112,8.1,8.1,68,0.00,,---,0.00,VWS V14.01,2013-03-03 15:18:00,
2013-03-03 09:23:00,33.8,24.0,29.74,ESE,112,4.3,6.3,67,0.00,,---,0.00,VWS V14.01,2013-03-03 15:23:00,
2013-03-03 09:28:00,34.2,24.0,29.74,SE,135,3.8,3.8,66,0.00,,---,0.00,VWS V14.01,2013-03-03 15:28:00,
2013-03-03 09:33:00,35.1,24.9,29.74,SE,135,6.3,6.3,66,0.00,,---,0.00,VWS V14.01,2013-03-03 15:33:00,
2013-03-03 09:38:00,35.1,24.5,29.74,SSE,158,2.9,3.6,65,0.00,,---,0.00,VWS V14.01,2013-03-03 15:38:00,
2013-03-03 09:43:00,35.8,24.8,29.71,ESE,112,3.1,3.1,64,0.00,,---,0.00,VWS V14.01,2013-03-03 15:43:00,
2013-03-03 09:48:00,36.0,25.0,29.71,SSE,158,4.9,4.9,64,0.00,,---,0.00,VWS V14.01,2013-03-03 15:48:00,
2013-03-03 09:53:00,36.1,25.1,29.71,SE,135,6.0,6.0,64,0.00,,---,0.00,VWS V14.01,2013-03-03 15:53:00,
2013-03-03 09:58:00,36.1,24.8,29.71,SSE,158,7.6,7.6,63,0.00,,---,0.00,VWS V14.01,2013-03-03 15:58:00,
2013-03-03 10:03:00,35.8,24.4,29.71,SE,135,2.5,3.4,63,0.00,,---,0.00,VWS V14.01,2013-03-03 16:03:00,
2013-03-03 10:08:00,37.0,25.6,29.71,SE,135,4.9,4.9,63,0.00,,---,0.00,VWS V14.01,2013-03-03 16:08:00,
2013-03-03 10:13:00,37.2,25.4,29.71,ESE,112,3.8,5.6,62,0.00,,---,0.00,VWS V14.01,2013-03-03 16:13:00,
2013-03-03 10:18:00,37.8,25.5,29.71,ESE,112,2.5,3.8,61,0.00,,---,0.00,VWS V14.01,2013-03-03 16:18:00,
2013-03-03 10:23:00,37.6,25.4,29.71,SSE,158,3.8,3.8,61,0.00,,---,0.00,VWS V14.01,2013-03-03 16:23:00,
2013-03-03 10:28:00,38.3,26.0,29.71,ESE,112,3.6,3.6,61,0.00,,---,0.00,VWS V14.01,2013-03-03 16:28:00,
2013-03-03 10:33:00,38.5,26.2,29.71,South,180,5.8,5.8,61,0.00,,---,0.00,VWS V14.01,2013-03-03 16:33:00,
2013-03-03 10:38:00,38.7,26.0,29.71,SE,135,3.4,3.4,60,0.00,,---,0.00,VWS V14.01,2013-03-03 16:38:00,
2013-03-03 10:43:00,37.6,25.0,29.71,SSW,202,1.3,8.1,60,0.00,,---,0.00,VWS V14.01,2013-03-03 16:43:00,
2013-03-03 10:48:00,38.1,25.5,29.71,SSE,158,3.8,5.6,60,0.00,,---,0.00,VWS V14.01,2013-03-03 16:48:00,
2013-03-03 10:53:00,37.6,25.0,29.71,SE,135,4.7,4.7,60,0.00,,---,0.00,VWS V14.01,2013-03-03 16:53:00,
2013-03-03 10:58:00,37.4,24.8,29.71,South,180,1.6,9.6,60,0.00,,---,0.00,VWS V14.01,2013-03-03 16:58:00,
2013-03-03 11:03:00,37.0,24.9,29.71,SSW,202,3.4,3.4,61,0.00,,---,0.00,VWS V14.01,2013-03-03 17:03:00,
2013-03-03 11:08:00,37.0,24.9,29.71,SSW,202,6.3,7.2,61,0.00,,---,0.00,VWS V14.01,2013-03-03 17:08:00,
2013-03-03 11:13:00,37.0,24.9,29.71,SSE,158,4.9,4.9,61,0.00,,---,0.00,VWS V14.01,2013-03-03 17:13:00,
2013-03-03 11:18:00,37.2,25.0,29.71,SSE,158,3.6,3.6,61,0.00,,---,0.00,VWS V14.01,2013-03-03 17:18:00,
2013-03-03 11:23:00,36.9,24.7,29.71,ESE,112,2.7,4.3,61,0.00,,---,0.00,VWS V14.01,2013-03-03 17:23:00,
2013-03-03 11:28:00,37.0,24.9,29.68,ESE,112,3.4,3.8,61,0.00,,---,0.00,VWS V14.01,2013-03-03 17:28:00,
2013-03-03 11:33:00,37.4,25.2,29.68,ENE,68,6.9,6.9,61,0.00,,---,0.00,VWS V14.01,2013-03-03 17:33:00,
2013-03-03 11:38:00,37.4,25.2,29.68,SSE,158,2.5,4.3,61,0.00,,---,0.00,VWS V14.01,2013-03-03 17:38:00,
2013-03-03 11:43:00,37.2,25.0,29.68,ESE,112,6.0,6.3,61,0.00,,---,0.00,VWS V14.01,2013-03-03 17:43:00,
2013-03-03 11:48:00,37.4,24.8,29.68,ESE,112,5.6,5.6,60,0.00,,---,0.00,VWS V14.01,2013-03-03 17:48:00,
2013-03-03 11:53:00,37.2,25.0,29.68,ESE,112,5.8,8.1,61,0.00,,---,0.00,VWS V14.01,2013-03-03 17:53:00,
2013-03-03 11:58:00,37.2,25.0,29.68,South,180,7.2,8.1,61,0.00,,---,0.00,VWS V14.01,2013-03-03 17:58:00,
2013-03-03 12:03:00,37.9,25.3,29.68,NNE,22,2.9,5.6,60,0.00,,---,0.00,VWS V14.01,2013-03-03 18:03:00,
2013-03-03 12:08:00,38.3,25.6,29.68,SE,135,12.5,12.5,60,0.00,,---,0.00,VWS V14.01,2013-03-03 18:08:00,
2013-03-03 12:13:00,38.5,25.8,29.68,SSE,158,5.6,5.6,60,0.00,,---,0.00,VWS V14.01,2013-03-03 18:13:00,
2013-03-03 12:18:00,38.8,26.2,29.68,South,180,6.0,6.0,60,0.00,,---,0.00,VWS V14.01,2013-03-03 18:18:00,
2013-03-03 12:23:00,39.6,26.4,29.68,ESE,112,4.9,5.8,59,0.00,,---,0.00,VWS V14.01,2013-03-03 18:23:00,
2013-03-03 12:28:00,39.9,26.8,29.65,ESE,112,4.9,5.6,59,0.00,,---,0.00,VWS V14.01,2013-03-03 18:28:00,
2013-03-03 12:33:00,39.9,26.4,29.65,ESE,112,4.9,4.9,58,0.00,,---,0.00,VWS V14.01,2013-03-03 18:33:00,
2013-03-03 12:38:00,39.9,26.4,29.65,East,90,6.3,7.4,58,0.00,,---,0.00,VWS V14.01,2013-03-03 18:38:00,
2013-03-03 12:43:00,39.9,26.4,29.65,ESE,112,4.7,4.7,58,0.00,,---,0.00,VWS V14.01,2013-03-03 18:43:00,
2013-03-03 12:48:00,39.9,26.4,29.65,SE,135,5.8,5.8,58,0.00,,---,0.00,VWS V14.01,2013-03-03 18:48:00,
2013-03-03 12:53:00,40.3,26.7,29.65,ESE,112,7.6,7.6,58,0.00,,---,0.00,VWS V14.01,2013-03-03 18:53:00,
2013-03-03 12:58:00,40.1,26.1,29.65,SSE,158,6.5,8.1,57,0.00,,---,0.00,VWS V14.01,2013-03-03 18:58:00,
2013-03-03 13:03:00,40.3,26.7,29.65,ESE,112,4.9,4.9,58,0.00,,---,0.00,VWS V14.01,2013-03-03 19:03:00,
2013-03-03 13:08:00,40.3,26.7,29.65,SE,135,7.8,7.8,58,0.00,,---,0.00,VWS V14.01,2013-03-03 19:08:00,
2013-03-03 13:13:00,40.1,26.5,29.62,SE,135,4.9,4.9,58,0.00,,---,0.00,VWS V14.01,2013-03-03 19:13:00,
2013-03-03 13:18:00,40.5,26.9,29.62,SE,135,7.8,7.8,58,0.00,,---,0.00,VWS V14.01,2013-03-03 19:18:00,
2013-03-03 13:23:00,40.5,26.9,29.62,East,90,5.8,5.8,58,0.00,,---,0.00,VWS V14.01,2013-03-03 19:23:00,
2013-03-03 13:28:00,40.5,26.9,29.62,ESE,112,3.4,6.0,58,0.00,,---,0.00,VWS V14.01,2013-03-03 19:28:00,
2013-03-03 13:33:00,40.5,26.9,29.62,SSE,158,5.4,5.4,58,0.00,,---,0.00,VWS V14.01,2013-03-03 19:33:00,
2013-03-03 13:38:00,40.6,27.0,29.62,SSE,158,6.0,6.0,58,0.00,,---,0.00,VWS V14.01,2013-03-03 19:38:00,
2013-03-03 13:43:00,40.8,27.2,29.62,ESE,112,7.4,7.4,58,0.00,,---,0.00,VWS V14.01,2013-03-03 19:43:00,
2013-03-03 13:48:00,40.6,27.0,29.62,ESE,112,3.4,3.4,58,0.00,,---,0.00,VWS V14.01,2013-03-03 19:48:00,
2013-03-03 13:53:00,40.6,27.0,29.62,SE,135,3.4,3.4,58,0.00,,---,0.00,VWS V14.01,2013-03-03 19:53:00,
2013-03-03 13:58:00,40.6,27.0,29.62,SE,135,5.6,5.6,58,0.00,,---,0.00,VWS V14.01,2013-03-03 19:58:00,
2013-03-03 14:03:00,40.5,26.9,29.62,ESE,112,3.4,7.6,58,0.00,,---,0.00,VWS V14.01,2013-03-03 20:03:00,
2013-03-03 14:08:00,40.5,26.9,29.62,SE,135,3.8,3.8,58,0.00,,---,0.00,VWS V14.01,2013-03-03 20:08:00,
2013-03-03 14:13:00,40.3,27.1,29.62,ESE,112,6.0,6.0,59,0.00,,---,0.00,VWS V14.01,2013-03-03 20:13:00,
2013-03-03 14:19:00,40.5,27.3,29.62,ESE,112,9.0,9.0,59,0.00,,---,0.00,VWS V14.01,2013-03-03 20:19:00,
2013-03-03 14:24:00,40.5,27.3,29.62,ESE,112,3.4,3.4,59,0.00,,---,0.00,VWS V14.01,2013-03-03 20:24:00,
2013-03-03 14:29:00,40.5,27.3,29.62,SE,135,3.4,3.4,59,0.00,,---,0.00,VWS V14.01,2013-03-03 20:29:00,
2013-03-03 14:34:00,40.3,27.1,29.62,SSE,158,7.6,7.6,59,0.00,,---,0.00,VWS V14.01,2013-03-03 20:34:00,
2013-03-03 14:39:00,40.3,27.1,29.62,ESE,112,4.9,4.9,59,0.00,,---,0.00,VWS V14.01,2013-03-03 20:39:00,
2013-03-03 14:44:00,40.1,26.9,29.62,ESE,112,7.4,8.1,59,0.00,,---,0.00,VWS V14.01,2013-03-03 20:44:00,
2013-03-03 14:49:00,40.3,27.1,29.62,ESE,112,12.1,12.1,59,0.00,,---,0.00,VWS V14.01,2013-03-03 20:49:00,
2013-03-03 14:54:00,39.9,26.8,29.62,SE,135,10.3,10.3,59,0.00,,---,0.00,VWS V14.01,2013-03-03 20:54:00,
2013-03-03 14:59:00,40.1,26.9,29.62,ESE,112,7.6,7.6,59,0.00,,---,0.00,VWS V14.01,2013-03-03 20:59:00,
2013-03-03 15:04:00,40.1,26.9,29.62,SE,135,8.1,8.1,59,0.00,,---,0.00,VWS V14.01,2013-03-03 21:04:00,
2013-03-03 15:09:00,40.1,26.9,29.59,ESE,112,10.7,10.7,59,0.00,,---,0.00,VWS V14.01,2013-03-03 21:09:00,
2013-03-03 15:14:00,40.3,27.5,29.59,ESE,112,4.3,6.3,60,0.00,,---,0.00,VWS V14.01,2013-03-03 21:14:00,
2013-03-03 15:19:00,40.3,27.5,29.59,SE,135,3.1,3.1,60,0.00,,---,0.00,VWS V14.01,2013-03-03 21:19:00,
2013-03-03 15:24:00,40.3,27.1,29.59,ESE,112,13.0,13.0,59,0.00,,---,0.00,VWS V14.01,2013-03-03 21:24:00,
2013-03-03 15:29:00,40.3,27.1,29.59,SE,135,6.5,6.5,59,0.00,,---,0.00,VWS V14.01,2013-03-03 21:29:00,
2013-03-03 15:34:00,40.3,27.1,29.59,ENE,68,5.6,5.6,59,0.00,,---,0.00,VWS V14.01,2013-03-03 21:34:00,
2013-03-03 15:39:00,40.1,26.9,29.59,SE,135,5.6,5.6,59,0.00,,---,0.00,VWS V14.01,2013-03-03 21:39:00,
2013-03-03 15:44:00,39.9,26.8,29.59,SE,135,4.3,4.3,59,0.00,,---,0.00,VWS V14.01,2013-03-03 21:44:00,
2013-03-03 15:49:00,39.9,27.2,29.59,East,90,7.8,7.8,60,0.00,,---,0.00,VWS V14.01,2013-03-03 21:49:00,
2013-03-03 15:54:00,39.7,26.6,29.59,ESE,112,6.3,9.2,59,0.00,,---,0.00,VWS V14.01,2013-03-03 21:54:00,
2013-03-03 15:59:00,39.6,26.4,29.59,ESE,112,6.0,6.0,59,0.00,,---,0.00,VWS V14.01,2013-03-03 21:59:00,
2013-03-03 16:04:00,39.4,26.3,29.59,ESE,112,5.6,6.3,59,0.00,,---,0.00,VWS V14.01,2013-03-03 22:04:00,
2013-03-03 16:09:00,39.6,26.4,29.59,ESE,112,4.3,4.3,59,0.00,,---,0.00,VWS V14.01,2013-03-03 22:09:00,
2013-03-03 16:14:00,39.6,26.4,29.59,ESE,112,4.0,4.0,59,0.00,,---,0.00,VWS V14.01,2013-03-03 22:14:00,
2013-03-03 16:19:00,39.4,26.3,29.59,ESE,112,7.2,7.2,59,0.00,,---,0.00,VWS V14.01,2013-03-03 22:19:00,
2013-03-03 16:24:00,39.0,25.9,29.59,SE,135,3.6,7.2,59,0.00,,---,0.00,VWS V14.01,2013-03-03 22:24:00,
2013-03-03 16:29:00,39.0,25.9,29.59,SE,135,6.0,6.5,59,0.00,,---,0.00,VWS V14.01,2013-03-03 22:29:00,
2013-03-03 16:34:00,38.8,25.8,29.59,SE,135,7.6,7.6,59,0.00,,---,0.00,VWS V14.01,2013-03-03 22:34:00,
2013-03-03 16:39:00,38.8,26.2,29.59,ESE,112,6.0,6.0,60,0.00,,---,0.00,VWS V14.01,2013-03-03 22:39:00,
2013-03-03 16:44:00,38.8,25.8,29.59,SE,135,9.4,10.7,59,0.00,,---,0.00,VWS V14.01,2013-03-03 22:44:00,
2013-03-03 16:49:00,38.7,25.6,29.59,East,90,3.6,5.4,59,0.00,,---,0.00,VWS V14.01,2013-03-03 22:49:00,
2013-03-03 16:54:00,38.5,25.4,29.59,ESE,112,6.5,6.5,59,0.00,,---,0.00,VWS V14.01,2013-03-03 22:54:00,
2013-03-03 16:59:00,38.5,25.4,29.59,SE,135,9.2,13.2,59,0.00,,---,0.00,VWS V14.01,2013-03-03 22:59:00,
2013-03-03 17:04:00,38.3,25.2,29.59,SE,135,12.3,12.3,59,0.00,,---,0.00,VWS V14.01,2013-03-03 23:04:00,
2013-03-03 17:09:00,38.1,25.5,29.59,SE,135,10.5,16.6,60,0.00,,---,0.00,VWS V14.01,2013-03-03 23:09:00,
2013-03-03 17:14:00,38.1,25.5,29.56,ENE,68,6.5,6.5,60,0.00,,---,0.00,VWS V14.01,2013-03-03 23:14:00,
2013-03-03 17:19:00,38.1,25.5,29.56,SE,135,5.8,6.5,60,0.00,,---,0.00,VWS V14.01,2013-03-03 23:19:00,
2013-03-03 17:24:00,37.9,25.3,29.56,ESE,112,8.5,9.0,60,0.00,,---,0.00,VWS V14.01,2013-03-03 23:24:00,
2013-03-03 17:29:00,37.9,25.3,29.56,East,90,5.4,5.4,60,0.00,,---,0.00,VWS V14.01,2013-03-03 23:29:00,
2013-03-03 17:34:00,37.8,25.1,29.56,SSW,202,8.5,8.7,60,0.00,,---,0.00,VWS V14.01,2013-03-03 23:34:00,
2013-03-03 17:39:00,37.6,25.0,29.53,ESE,112,6.5,6.5,60,0.00,,---,0.00,VWS V14.01,2013-03-03 23:39:00,
2013-03-03 17:45:00,37.6,25.0,29.53,ESE,112,6.7,9.4,60,0.00,,---,0.00,VWS V14.01,2013-03-03 23:45:00,
2013-03-03 17:50:00,37.4,24.8,29.53,NNE,22,3.6,3.6,60,0.00,,---,0.00,VWS V14.01,2013-03-03 23:50:00,
2013-03-03 17:55:00,37.4,24.8,29.56,ESE,112,7.6,7.6,60,0.00,,---,0.00,VWS V14.01,2013-03-03 23:55:00,
2013-03-03 18:00:00,37.2,25.0,29.56,ESE,112,6.0,6.0,61,0.00,,---,0.00,VWS V14.01,2013-03-04 00:00:00,
2013-03-03 18:05:00,37.0,24.9,29.56,SE,135,10.3,10.3,61,0.00,,---,0.00,VWS V14.01,2013-03-04 00:05:00,
2013-03-03 18:10:00,37.0,24.9,29.56,SSE,158,5.6,5.6,61,0.00,,---,0.00,VWS V14.01,2013-03-04 00:10:00,
2013-03-03 18:15:00,36.9,24.7,29.56,East,90,12.8,12.8,61,0.00,,---,0.00,VWS V14.01,2013-03-04 00:15:00,
2013-03-03 18:20:00,36.9,24.7,29.56,South,180,5.4,5.6,61,0.00,,---,0.00,VWS V14.01,2013-03-04 00:20:00,
2013-03-03 18:25:00,36.7,24.5,29.59,SSE,158,5.6,5.6,61,0.00,,---,0.00,VWS V14.01,2013-03-04 00:25:00,
2013-03-03 18:30:00,36.7,24.5,29.59,SSE,158,7.8,7.8,61,0.00,,---,0.00,VWS V14.01,2013-03-04 00:30:00,
2013-03-03 18:35:00,36.7,24.5,29.59,ESE,112,6.5,6.5,61,0.00,,---,0.00,VWS V14.01,2013-03-04 00:35:00,
2013-03-03 18:40:00,36.3,24.2,29.56,ESE,112,5.6,5.6,61,0.00,,---,0.00,VWS V14.01,2013-03-04 00:40:00,
2013-03-03 18:45:00,36.3,24.6,29.56,ESE,112,13.2,13.2,62,0.00,,---,0.00,VWS V14.01,2013-03-04 00:45:00,
2013-03-03 18:50:00,36.3,24.6,29.56,ESE,112,6.0,6.0,62,0.00,,---,0.00,VWS V14.01,2013-03-04 00:50:00,
2013-03-03 18:55:00,36.1,24.4,29.56,ESE,112,4.0,7.2,62,0.00,,---,0.00,VWS V14.01,2013-03-04 00:55:00,
2013-03-03 19:00:00,36.1,24.4,29.56,SE,135,3.8,5.4,62,0.00,,---,0.00,VWS V14.01,2013-03-04 01:00:00,
2013-03-03 19:05:00,36.1,24.4,29.56,East,90,7.8,7.8,62,0.00,,---,0.00,VWS V14.01,2013-03-04 01:05:00,
2013-03-03 19:10:00,36.0,24.2,29.56,ESE,112,3.8,3.8,62,0.00,,---,0.00,VWS V14.01,2013-03-04 01:10:00,
2013-03-03 19:15:00,35.8,24.0,29.56,SE,135,7.8,7.8,62,0.00,,---,0.00,VWS V14.01,2013-03-04 01:15:00,
2013-03-03 19:20:00,35.8,24.0,29.56,SSE,158,7.4,7.4,62,0.00,,---,0.00,VWS V14.01,2013-03-04 01:20:00,
2013-03-03 19:25:00,35.8,24.4,29.59,ENE,68,3.4,3.4,63,0.00,,---,0.00,VWS V14.01,2013-03-04 01:25:00,
2013-03-03 19:30:00,35.8,24.4,29.59,ESE,112,3.6,3.6,63,0.00,,---,0.00,VWS V14.01,2013-03-04 01:30:00,
2013-03-03 19:35:00,35.8,24.4,29.59,ESE,112,2.9,7.8,63,0.00,,---,0.00,VWS V14.01,2013-03-04 01:35:00,
2013-03-03 19:40:00,35.8,24.4,29.59,SE,135,8.1,8.1,63,0.00,,---,0.00,VWS V14.01,2013-03-04 01:40:00,
2013-03-03 19:45:00,35.8,24.4,29.59,ESE,112,10.5,10.5,63,0.00,,---,0.00,VWS V14.01,2013-03-04 01:45:00,
2013-03-03 19:50:00,35.6,24.3,29.59,ENE,68,12.5,12.5,63,0.00,,---,0.00,VWS V14.01,2013-03-04 01:50:00,
2013-03-03 19:55:00,35.6,24.3,29.59,ESE,112,3.6,3.6,63,0.00,,---,0.00,VWS V14.01,2013-03-04 01:55:00,
2013-03-03 20:00:00,35.6,24.3,29.59,ESE,112,7.6,7.6,63,0.00,,---,0.00,VWS V14.01,2013-03-04 02:00:00,
2013-03-03 20:05:00,35.6,24.6,29.59,SSE,158,3.6,8.1,64,0.00,,---,0.00,VWS V14.01,2013-03-04 02:05:00,
2013-03-03 20:10:00,35.6,24.6,29.59,South,180,4.7,5.4,64,0.00,,---,0.00,VWS V14.01,2013-03-04 02:10:00,
2013-03-03 20:15:00,35.6,24.6,29.59,ESE,112,5.8,5.8,64,0.00,,---,0.00,VWS V14.01,2013-03-04 02:15:00,
2013-03-03 20:20:00,35.4,24.5,29.59,SE,135,4.0,10.1,64,0.00,,---,0.00,VWS V14.01,2013-03-04 02:20:00,
2013-03-03 20:25:00,35.4,24.5,29.59,SSE,158,5.6,5.6,64,0.00,,---,0.00,VWS V14.01,2013-03-04 02:25:00,
2013-03-03 20:30:00,35.4,24.5,29.59,SE,135,9.2,9.2,64,0.00,,---,0.00,VWS V14.01,2013-03-04 02:30:00,
2013-03-03 20:35:00,35.4,24.5,29.59,ESE,112,4.7,4.7,64,0.00,,---,0.00,VWS V14.01,2013-03-04 02:35:00,
2013-03-03 20:40:00,35.2,24.3,29.56,ESE,112,6.5,6.5,64,0.00,,---,0.00,VWS V14.01,2013-03-04 02:40:00,
2013-03-03 20:45:00,35.1,24.5,29.56,ESE,112,6.0,7.8,65,0.00,,---,0.00,VWS V14.01,2013-03-04 02:45:00,
2013-03-03 20:50:00,35.1,24.5,29.56,ESE,112,7.4,10.5,65,0.00,,---,0.00,VWS V14.01,2013-03-04 02:50:00,
2013-03-03 20:55:00,35.1,24.5,29.56,ESE,112,4.3,10.3,65,0.00,,---,0.00,VWS V14.01,2013-03-04 02:55:00,
2013-03-03 21:00:00,34.9,24.3,29.56,SE,135,4.3,4.7,65,0.00,,---,0.00,VWS V14.01,2013-03-04 03:00:00,
2013-03-03 21:05:00,34.9,24.3,29.56,SE,135,8.5,8.5,65,0.00,,---,0.00,VWS V14.01,2013-03-04 03:05:00,
2013-03-03 21:10:00,34.9,24.3,29.56,East,90,6.5,6.5,65,0.00,,---,0.00,VWS V14.01,2013-03-04 03:10:00,
2013-03-03 21:15:00,34.9,24.3,29.56,SE,135,4.9,6.3,65,0.00,,---,0.00,VWS V14.01,2013-03-04 03:15:00,
2013-03-03 21:20:00,34.7,24.1,29.56,SE,135,10.1,10.1,65,0.00,,---,0.00,VWS V14.01,2013-03-04 03:20:00,
2013-03-03 21:26:00,34.7,24.1,29.56,ESE,112,5.4,5.4,65,0.00,,---,0.00,VWS V14.01,2013-03-04 03:26:00,
2013-03-03 21:31:00,34.7,24.1,29.56,ESE,112,4.9,4.9,65,0.00,,---,0.00,VWS V14.01,2013-03-04 03:31:00,
2013-03-03 21:36:00,34.9,24.3,29.56,ESE,112,7.6,7.6,65,0.00,,---,0.00,VWS V14.01,2013-03-04 03:36:00,
2013-03-03 21:41:00,34.7,24.1,29.56,SE,135,5.6,5.6,65,0.00,,---,0.00,VWS V14.01,2013-03-04 03:41:00,
2013-03-03 21:46:00,34.7,24.1,29.56,SE,135,6.5,6.5,65,0.00,,---,0.00,VWS V14.01,2013-03-04 03:46:00,
2013-03-03 21:51:00,34.5,24.0,29.56,East,90,6.5,6.5,65,0.00,,---,0.00,VWS V14.01,2013-03-04 03:51:00,
2013-03-03 21:56:00,34.5,23.6,29.56,ESE,112,4.9,4.9,64,0.00,,---,0.00,VWS V14.01,2013-03-04 03:56:00,
2013-03-03 22:01:00,34.5,23.6,29.56,SSE,158,10.3,10.5,64,0.00,,---,0.00,VWS V14.01,2013-03-04 04:01:00,
2013-03-03 22:06:00,34.5,23.6,29.56,ESE,112,4.3,4.3,64,0.00,,---,0.00,VWS V14.01,2013-03-04 04:06:00,
2013-03-03 22:11:00,34.5,23.6,29.56,ESE,112,7.4,7.4,64,0.00,,---,0.00,VWS V14.01,2013-03-04 04:11:00,
2013-03-03 22:16:00,34.5,23.6,29.56,ESE,112,7.8,7.8,64,0.00,,---,0.00,VWS V14.01,2013-03-04 04:16:00,
2013-03-03 22:21:00,34.5,23.6,29.56,ESE,112,8.1,8.1,64,0.00,,---,0.00,VWS V14.01,2013-03-04 04:21:00,
2013-03-03 22:26:00,34.5,23.6,29.56,East,90,10.7,10.7,64,0.00,,---,0.00,VWS V14.01,2013-03-04 04:26:00,
2013-03-03 22:31:00,34.5,23.6,29.56,ESE,112,5.8,9.8,64,0.00,,---,0.00,VWS V14.01,2013-03-04 04:31:00,
2013-03-03 22:36:00,34.5,23.2,29.56,SSE,158,4.9,6.0,63,0.00,,---,0.00,VWS V14.01,2013-03-04 04:36:00,
2013-03-03 22:41:00,34.5,23.2,29.56,East,90,2.9,6.3,63,0.00,,---,0.00,VWS V14.01,2013-03-04 04:41:00,
2013-03-03 22:46:00,34.5,23.2,29.56,ESE,112,6.3,6.5,63,0.00,,---,0.00,VWS V14.01,2013-03-04 04:46:00,
2013-03-03 22:51:00,34.5,23.2,29.56,ENE,68,8.5,8.5,63,0.00,,---,0.00,VWS V14.01,2013-03-04 04:51:00,
2013-03-03 22:56:00,34.3,23.1,29.56,SE,135,4.0,10.5,63,0.00,,---,0.00,VWS V14.01,2013-03-04 04:56:00,
2013-03-03 23:00:00,34.3,23.1,29.56,SE,135,5.6,9.2,63,0.00,,---,0.00,VWS V14.01,2013-03-04 05:00:00,
2013-03-03 23:05:00,34.2,22.9,29.56,SE,135,7.8,7.8,63,0.00,,---,0.00,VWS V14.01,2013-03-04 05:05:00,
2013-03-03 23:10:00,34.0,22.7,29.53,ESE,112,4.0,4.0,63,0.00,,---,0.00,VWS V14.01,2013-03-04 05:10:00,
2013-03-03 23:15:00,33.8,22.5,29.53,SE,135,5.8,10.3,63,0.00,,---,0.00,VWS V14.01,2013-03-04 05:15:00,
2013-03-03 23:20:00,33.8,22.9,29.53,ENE,68,5.6,5.6,64,0.00,,---,0.00,VWS V14.01,2013-03-04 05:20:00,
2013-03-03 23:25:00,33.6,22.8,29.53,ESE,112,6.5,6.7,64,0.00,,---,0.00,VWS V14.01,2013-03-04 05:25:00,
2013-03-03 23:30:00,33.6,22.8,29.53,ESE,112,11.9,11.9,64,0.00,,---,0.00,VWS V14.01,2013-03-04 05:30:00,
2013-03-03 23:35:00,33.6,22.8,29.53,ESE,112,12.3,12.8,64,0.00,,---,0.00,VWS V14.01,2013-03-04 05:35:00,
2013-03-03 23:40:00,33.4,22.6,29.50,SSE,158,4.3,4.3,64,0.00,,---,0.00,VWS V14.01,2013-03-04 05:40:00,
2013-03-03 23:45:00,33.4,22.6,29.50,ESE,112,7.6,7.6,64,0.00,,---,0.00,VWS V14.01,2013-03-04 05:45:00,
2013-03-03 23:50:00,33.4,22.6,29.50,ESE,112,6.0,8.1,64,0.00,,---,0.00,VWS V14.01,2013-03-04 05:50:00,
2013-03-03 23:56:00,33.4,23.0,29.50,ESE,112,5.8,5.8,65,0.00,,---,0.00,VWS V14.01,2013-03-04 05:56:00,